createdAt,value
2022-07-26T00:00:55.896Z,2.97
2022-07-26T00:03:23.116Z,3.03
2022-07-26T00:05:50.275Z,2.78
2022-07-26T00:08:17.497Z,3.08
2022-07-26T00:10:49.464Z,3.30
2022-07-26T00:15:46.830Z,2.70
2022-07-26T00:18:15.517Z,2.92
2022-07-26T00:20:42.875Z,2.70
2022-07-26T00:23:10.756Z,3.13
2022-07-26T00:25:38.252Z,2.80
2022-07-26T00:28:05.867Z,2.75
2022-07-26T00:30:33.928Z,3.30
2022-07-26T00:33:01.335Z,3.30
2022-07-26T00:35:28.475Z,2.80
2022-07-26T00:37:55.594Z,3.33
2022-07-26T00:40:23.199Z,2.95
2022-07-26T00:42:50.594Z,3.05
2022-07-26T00:45:18.421Z,3.10
2022-07-26T00:47:46.022Z,2.85
2022-07-26T00:50:16.497Z,3.30
2022-07-26T00:52:48.597Z,3.10
2022-07-26T00:55:17.363Z,2.92
2022-07-26T00:57:45.606Z,3.13
2022-07-26T01:00:21.637Z,3.13
2022-07-26T01:02:49.101Z,3.08
2022-07-26T01:05:16.963Z,2.47
2022-07-26T01:07:44.483Z,2.90
2022-07-26T01:10:15.139Z,3.00
2022-07-26T01:12:43.643Z,2.38
2022-07-26T01:15:13.270Z,2.38
2022-07-26T01:17:41.496Z,2.47
2022-07-26T01:20:11.052Z,2.20
2022-07-26T01:22:38.386Z,2.40
2022-07-26T01:25:06.839Z,2.20
2022-07-26T01:27:39.621Z,2.00
2022-07-26T01:30:12.153Z,2.40
2022-07-26T01:32:40.006Z,2.30
2022-07-26T01:35:08.014Z,2.42
2022-07-26T01:37:35.448Z,2.05
2022-07-26T01:40:03.835Z,2.08
2022-07-26T01:42:34.417Z,2.13
2022-07-26T01:45:01.658Z,2.40
2022-07-26T01:47:28.940Z,3.05
2022-07-26T01:49:56.071Z,2.90
2022-07-26T01:52:23.290Z,2.58
2022-07-26T01:54:50.362Z,2.70
2022-07-26T01:57:17.610Z,3.00
2022-07-26T01:59:44.741Z,2.67
2022-07-26T02:02:12.351Z,2.60
2022-07-26T02:04:58.690Z,2.70
2022-07-26T02:07:31.009Z,2.53
2022-07-26T02:10:00.651Z,2.42
2022-07-26T02:12:28.061Z,2.45
2022-07-26T02:14:55.578Z,2.30
2022-07-26T02:17:23.027Z,2.17
2022-07-26T02:19:50.441Z,2.10
2022-07-26T02:22:19.026Z,2.20
2022-07-26T02:24:47.768Z,1.90
2022-07-26T02:27:15.582Z,2.08
2022-07-26T02:29:43.503Z,2.00
2022-07-26T02:32:11.328Z,2.08
2022-07-26T02:34:38.799Z,2.28
2022-07-26T02:37:06.026Z,2.00
2022-07-26T02:39:33.372Z,2.00
2022-07-26T02:42:03.077Z,2.03
2022-07-26T02:44:31.004Z,2.10
2022-07-26T02:46:58.149Z,2.60
2022-07-26T02:49:25.459Z,2.47
2022-07-26T02:51:52.721Z,2.10
2022-07-26T02:54:19.875Z,2.75
2022-07-26T02:56:47.039Z,2.88
2022-07-26T02:59:14.186Z,2.78
2022-07-26T03:01:41.480Z,2.50
2022-07-26T03:04:09.081Z,2.53
2022-07-26T03:06:36.438Z,2.22
2022-07-26T03:09:04.937Z,2.00
2022-07-26T03:11:32.160Z,2.40
2022-07-26T03:13:59.386Z,2.13
2022-07-26T03:16:29.653Z,2.25
2022-07-26T03:18:57.920Z,2.15
2022-07-26T03:21:25.052Z,2.55
2022-07-26T03:23:52.352Z,2.40
2022-07-26T03:26:20.641Z,2.55
2022-07-26T03:28:48.056Z,2.42
2022-07-26T03:31:15.248Z,2.70
2022-07-26T03:33:42.728Z,2.20
2022-07-26T03:36:11.522Z,2.53
2022-07-26T03:38:42.689Z,2.30
2022-07-26T03:41:13.572Z,2.60
2022-07-26T03:43:41.618Z,2.88
2022-07-26T03:46:09.226Z,2.35
2022-07-26T03:48:36.666Z,2.22
2022-07-26T03:51:04.485Z,2.40
2022-07-26T03:53:32.027Z,2.38
2022-07-26T03:56:18.270Z,2.55
2022-07-26T03:58:45.543Z,2.38
2022-07-26T04:01:12.720Z,2.30
2022-07-26T04:03:41.384Z,2.40
2022-07-26T04:06:14.883Z,2.50
2022-07-26T04:08:42.465Z,2.42
2022-07-26T04:11:09.674Z,2.20
2022-07-26T04:13:37.123Z,2.70
2022-07-26T04:16:05.102Z,2.70
2022-07-26T04:18:32.977Z,2.22
2022-07-26T04:21:00.402Z,2.70
2022-07-26T04:23:27.733Z,2.13
2022-07-26T04:25:54.820Z,2.30
2022-07-26T04:28:22.218Z,2.35
2022-07-26T04:30:49.842Z,2.22
2022-07-26T04:33:17.264Z,2.45
2022-07-26T04:35:44.341Z,2.13
2022-07-26T04:38:11.579Z,2.25
2022-07-26T04:40:41.005Z,2.40
2022-07-26T04:43:10.230Z,2.30
2022-07-26T04:45:46.812Z,2.10
2022-07-26T04:48:15.734Z,2.57
2022-07-26T04:50:43.975Z,2.10
2022-07-26T04:53:11.345Z,2.13
2022-07-26T04:55:39.308Z,2.15
2022-07-26T04:58:06.770Z,2.25
2022-07-26T05:00:35.078Z,2.40
2022-07-26T05:03:14.147Z,2.10
2022-07-26T05:05:41.363Z,2.70
2022-07-26T05:08:08.734Z,3.03
2022-07-26T05:10:37.979Z,2.63
2022-07-26T05:13:07.691Z,2.60
2022-07-26T05:15:39.287Z,2.90
2022-07-26T05:18:13.584Z,2.63
2022-07-26T05:20:41.048Z,2.58
2022-07-26T05:23:09.237Z,2.88
2022-07-26T05:25:36.770Z,2.55
2022-07-26T05:28:04.778Z,2.60
2022-07-26T05:30:32.051Z,2.50
2022-07-26T05:32:59.437Z,3.10
2022-07-26T05:35:27.240Z,2.80
2022-07-26T05:37:54.588Z,2.63
2022-07-26T05:40:22.527Z,2.90
2022-07-26T05:42:49.820Z,2.60
2022-07-26T05:45:16.921Z,2.58
2022-07-26T05:47:44.275Z,2.80
2022-07-26T05:50:11.451Z,2.80
2022-07-26T05:52:38.624Z,3.08
2022-07-26T05:55:07.269Z,3.50
2022-07-26T05:57:34.483Z,3.17
2022-07-26T06:00:01.904Z,2.75
2022-07-26T06:02:29.257Z,2.83
2022-07-26T06:04:56.434Z,3.25
2022-07-26T06:07:23.534Z,2.80
2022-07-26T06:09:50.745Z,3.13
2022-07-26T06:12:18.029Z,2.80
2022-07-26T06:14:45.383Z,3.00
2022-07-26T06:17:12.786Z,3.15
2022-07-26T06:19:44.281Z,2.75
2022-07-26T06:22:14.385Z,2.55
2022-07-26T06:24:41.699Z,2.65
2022-07-26T06:27:08.921Z,2.72
2022-07-26T06:29:36.264Z,2.30
2022-07-26T06:32:03.668Z,3.00
2022-07-26T06:34:31.102Z,2.67
2022-07-26T06:36:58.555Z,2.40
2022-07-26T06:39:25.830Z,2.25
2022-07-26T06:41:52.960Z,2.28
2022-07-26T06:44:20.139Z,2.42
2022-07-26T06:46:48.115Z,2.28
2022-07-26T06:49:18.413Z,2.60
2022-07-26T06:51:48.004Z,2.17
2022-07-26T06:54:15.232Z,2.03
2022-07-26T06:56:42.352Z,2.20
2022-07-26T06:59:10.358Z,2.03
2022-07-26T07:01:58.208Z,2.08
2022-07-26T07:04:25.084Z,2.28
2022-07-26T07:06:52.352Z,2.20
2022-07-26T07:09:20.117Z,2.17
2022-07-26T07:11:52.277Z,2.20
2022-07-26T07:14:23.728Z,2.30
2022-07-26T07:16:50.996Z,2.08
2022-07-26T07:19:18.294Z,1.85
2022-07-26T07:21:45.416Z,2.38
2022-07-26T07:24:12.691Z,2.40
2022-07-26T07:26:41.860Z,2.20
2022-07-26T07:29:14.844Z,2.05
2022-07-26T07:31:48.701Z,2.20
2022-07-26T07:34:23.827Z,2.15
2022-07-26T07:36:52.089Z,1.77
2022-07-26T07:39:19.871Z,1.85
2022-07-26T07:41:48.436Z,2.25
2022-07-26T07:44:15.834Z,1.90
2022-07-26T07:46:44.247Z,1.98
2022-07-26T07:49:12.054Z,1.90
2022-07-26T07:51:39.783Z,2.03
2022-07-26T07:54:07.035Z,1.73
2022-07-26T07:56:35.680Z,1.80
2022-07-26T07:59:03.188Z,1.67
2022-07-26T08:01:40.138Z,1.70
2022-07-26T08:04:09.563Z,1.88
2022-07-26T08:06:37.229Z,1.80
2022-07-26T08:09:05.067Z,1.88
2022-07-26T08:11:34.555Z,1.95
2022-07-26T08:14:02.431Z,2.00
2022-07-26T08:16:29.720Z,1.73
2022-07-26T08:18:58.507Z,1.40
2022-07-26T08:21:29.261Z,2.03
2022-07-26T08:23:57.673Z,1.88
2022-07-26T08:26:25.306Z,2.10
2022-07-26T08:28:59.378Z,1.83
2022-07-26T08:31:37.288Z,2.05
2022-07-26T08:34:04.698Z,1.80
2022-07-26T08:36:32.908Z,2.10
2022-07-26T08:39:01.865Z,2.15
2022-07-26T08:41:30.030Z,2.17
2022-07-26T08:44:07.044Z,2.15
2022-07-26T08:46:37.751Z,2.10
2022-07-26T08:49:10.714Z,1.80
2022-07-26T08:51:44.044Z,1.52
2022-07-26T08:54:15.320Z,1.70
2022-07-26T08:56:52.561Z,1.80
2022-07-26T08:59:22.728Z,2.00
2022-07-26T09:02:00.539Z,1.80
2022-07-26T09:04:41.633Z,1.85
2022-07-26T09:07:20.277Z,1.75
2022-07-26T09:10:11.184Z,1.50
2022-07-26T09:12:39.694Z,1.85
2022-07-26T09:15:18.224Z,1.50
2022-07-26T09:17:49.996Z,1.23
2022-07-26T09:20:29.907Z,1.75
2022-07-26T09:23:04.524Z,1.55
2022-07-26T09:25:38.024Z,1.75
2022-07-26T09:28:23.161Z,1.70
2022-07-26T09:31:02.088Z,1.40
2022-07-26T09:33:51.681Z,1.58
2022-07-26T09:36:19.504Z,1.40
2022-07-26T09:38:50.983Z,1.52
2022-07-26T09:41:21.713Z,1.60
2022-07-26T09:43:53.923Z,1.55
2022-07-26T09:46:28.273Z,1.80
2022-07-26T09:49:13.647Z,1.55
2022-07-26T09:51:50.324Z,1.60
2022-07-26T09:54:29.445Z,1.50
2022-07-26T09:56:57.280Z,1.45
2022-07-26T09:59:26.684Z,1.60
2022-07-26T10:01:56.218Z,1.60
2022-07-26T10:04:24.741Z,1.70
2022-07-26T10:06:52.780Z,1.88
2022-07-26T10:09:20.580Z,1.88
2022-07-26T10:12:09.117Z,1.58
2022-07-26T10:14:37.025Z,1.88
2022-07-26T10:17:31.633Z,1.73
2022-07-26T10:20:17.491Z,2.00
2022-07-26T10:22:49.069Z,1.80
2022-07-26T10:25:36.598Z,2.00
2022-07-26T10:28:03.942Z,1.73
2022-07-26T10:30:39.419Z,1.92
2022-07-26T10:33:16.722Z,1.98
2022-07-26T10:35:44.132Z,1.63
2022-07-26T10:38:23.233Z,1.67
2022-07-26T10:41:09.150Z,1.70
2022-07-26T10:43:41.565Z,1.48
2022-07-26T10:46:23.465Z,1.60
2022-07-26T10:49:03.980Z,1.80
2022-07-26T10:51:35.936Z,1.70
2022-07-26T10:54:06.357Z,2.22
2022-07-26T10:56:34.296Z,1.70
2022-07-26T10:59:03.965Z,1.80
2022-07-26T11:01:40.530Z,1.67
2022-07-26T11:04:19.139Z,1.60
2022-07-26T11:06:46.305Z,1.50
2022-07-26T11:09:14.091Z,1.63
2022-07-26T11:11:46.561Z,1.80
2022-07-26T11:14:18.018Z,1.42
2022-07-26T11:16:48.946Z,1.65
2022-07-26T11:19:27.648Z,1.42
2022-07-26T11:22:00.645Z,1.35
2022-07-26T11:24:29.253Z,1.35
2022-07-26T11:26:58.486Z,1.52
2022-07-26T11:29:38.892Z,1.60
2022-07-26T11:32:19.374Z,1.50
2022-07-26T11:34:47.970Z,1.27
2022-07-26T11:37:15.506Z,1.40
2022-07-26T11:39:42.582Z,1.50
2022-07-26T11:42:13.315Z,1.48
2022-07-26T11:44:45.388Z,1.50
2022-07-26T11:47:14.316Z,1.75
2022-07-26T11:49:59.758Z,1.63
2022-07-26T11:52:32.049Z,1.90
2022-07-26T11:54:59.918Z,1.55
2022-07-26T11:57:32.546Z,1.85
2022-07-26T12:00:01.047Z,1.88
2022-07-26T12:02:30.759Z,1.98
2022-07-26T12:05:20.049Z,1.83
2022-07-26T12:08:05.244Z,1.77
2022-07-26T12:10:32.659Z,1.88
2022-07-26T12:13:15.891Z,1.90
2022-07-26T12:15:52.982Z,1.83
2022-07-26T12:18:29.955Z,1.60
2022-07-26T12:21:08.061Z,1.52
2022-07-26T12:23:48.984Z,2.03
2022-07-26T12:26:27.514Z,1.98
2022-07-26T12:28:56.890Z,1.60
2022-07-26T12:31:29.050Z,1.60
2022-07-26T12:33:57.289Z,1.50
2022-07-26T12:36:27.674Z,1.63
2022-07-26T12:39:01.277Z,1.55
2022-07-26T12:41:40.285Z,1.42
2022-07-26T12:44:12.399Z,1.70
2022-07-26T12:46:40.021Z,1.90
2022-07-26T12:49:07.482Z,1.75
2022-07-26T12:51:34.804Z,2.13
2022-07-26T12:54:03.579Z,1.80
2022-07-26T12:56:30.843Z,1.65
2022-07-26T12:59:01.683Z,1.75
2022-07-26T13:01:30.533Z,1.70
2022-07-26T13:03:57.979Z,1.60
2022-07-26T13:06:25.153Z,1.30
2022-07-26T13:08:52.372Z,1.33
2022-07-26T13:11:19.563Z,1.40
2022-07-26T13:13:46.854Z,1.50
2022-07-26T13:16:14.039Z,1.27
2022-07-26T13:18:41.286Z,1.10
2022-07-26T13:21:08.458Z,1.45
2022-07-26T13:23:36.028Z,1.20
2022-07-26T13:26:04.410Z,1.20
2022-07-26T13:28:36.593Z,1.23
2022-07-26T13:31:03.860Z,1.13
2022-07-26T13:33:32.725Z,1.40
2022-07-26T13:35:59.971Z,1.50
2022-07-26T13:38:28.430Z,1.17
2022-07-26T13:40:56.549Z,1.05
2022-07-26T13:43:24.631Z,1.30
2022-07-26T13:45:51.840Z,1.30
2022-07-26T13:48:19.209Z,1.30
2022-07-26T13:50:46.479Z,1.20
2022-07-26T13:53:13.734Z,1.10
2022-07-26T13:55:40.869Z,1.35
2022-07-26T13:58:10.317Z,0.90
2022-07-26T14:00:38.158Z,0.95
2022-07-26T14:03:05.701Z,1.10
2022-07-26T14:05:32.982Z,0.85
2022-07-26T14:08:00.626Z,1.10
2022-07-26T14:10:27.815Z,1.20
2022-07-26T14:12:55.236Z,1.27
2022-07-26T14:15:23.680Z,1.10
2022-07-26T14:17:52.676Z,0.98
2022-07-26T14:20:21.107Z,1.05
2022-07-26T14:22:53.587Z,1.20
2022-07-26T14:25:22.886Z,0.80
2022-07-26T14:27:52.495Z,1.00
2022-07-26T14:30:21.729Z,0.90
2022-07-26T14:32:49.418Z,0.90
2022-07-26T14:35:18.033Z,0.80
2022-07-26T14:37:46.010Z,1.00
2022-07-26T14:40:16.330Z,0.88
2022-07-26T14:42:44.996Z,0.95
2022-07-26T14:45:13.403Z,0.82
2022-07-26T14:47:41.039Z,0.80
2022-07-26T14:50:10.729Z,0.82
2022-07-26T14:52:44.395Z,0.80
2022-07-26T14:55:12.118Z,0.90
2022-07-26T14:57:40.293Z,0.70
2022-07-26T15:00:12.863Z,0.80
2022-07-26T15:02:46.634Z,0.70
2022-07-26T15:05:15.540Z,0.80
2022-07-26T15:07:43.927Z,1.00
2022-07-26T15:10:14.242Z,0.80
2022-07-26T15:12:42.478Z,0.93
2022-07-26T15:15:11.155Z,0.80
2022-07-26T15:17:38.552Z,0.63
2022-07-26T15:20:07.317Z,0.88
2022-07-26T15:22:35.407Z,0.75
2022-07-26T15:25:02.775Z,0.75
2022-07-26T15:27:29.976Z,0.77
2022-07-26T15:30:02.799Z,0.70
2022-07-26T15:32:32.664Z,0.80
2022-07-26T15:34:59.851Z,0.95
2022-07-26T15:37:27.386Z,0.90
2022-07-26T15:39:54.592Z,0.80
2022-07-26T15:42:23.269Z,0.80
2022-07-26T15:44:50.946Z,0.85
2022-07-26T15:47:43.503Z,0.85
2022-07-26T15:50:09.400Z,0.90
2022-07-26T15:52:43.781Z,0.80
2022-07-26T15:55:12.605Z,0.70
2022-07-26T15:57:40.946Z,0.70
2022-07-26T16:00:10.943Z,0.73
2022-07-26T16:02:40.961Z,0.70
2022-07-26T16:05:09.317Z,0.68
2022-07-26T16:07:36.962Z,0.73
2022-07-26T16:10:05.026Z,0.80
2022-07-26T16:12:33.456Z,0.63
2022-07-26T16:15:00.942Z,0.77
2022-07-26T16:17:28.218Z,1.00
2022-07-26T16:19:55.483Z,0.80
2022-07-26T16:22:22.817Z,0.80
2022-07-26T16:24:50.156Z,0.80
2022-07-26T16:27:17.491Z,0.80
2022-07-26T16:29:47.782Z,0.65
2022-07-26T16:32:17.688Z,0.80
2022-07-26T16:34:44.790Z,0.80
2022-07-26T16:37:12.088Z,0.90
2022-07-26T16:39:39.198Z,0.70
2022-07-26T16:42:07.407Z,0.90
2022-07-26T16:44:36.300Z,0.80
2022-07-26T16:47:04.749Z,0.70
2022-07-26T16:49:31.984Z,0.70
2022-07-26T16:51:59.567Z,0.70
2022-07-26T16:54:27.142Z,0.90
2022-07-26T16:56:54.566Z,0.80
2022-07-26T16:59:21.937Z,0.80
2022-07-26T17:01:49.202Z,0.70
2022-07-26T17:04:17.440Z,0.50
2022-07-26T17:07:01.639Z,0.60
2022-07-26T17:09:32.328Z,0.70
2022-07-26T17:12:04.291Z,0.60
2022-07-26T17:14:33.649Z,0.95
2022-07-26T17:17:00.867Z,0.68
2022-07-26T17:19:28.466Z,0.60
2022-07-26T17:21:55.744Z,0.50
2022-07-26T17:24:22.965Z,0.80
2022-07-26T17:26:50.180Z,0.70
2022-07-26T17:29:17.522Z,0.60
2022-07-26T17:31:44.849Z,0.80
2022-07-26T17:34:12.190Z,0.70
2022-07-26T17:36:39.297Z,0.73
2022-07-26T17:39:14.912Z,0.90
2022-07-26T17:41:47.498Z,0.70
2022-07-26T17:46:42.916Z,0.60
2022-07-26T17:49:10.663Z,0.60
2022-07-26T17:51:39.274Z,0.70
2022-07-26T17:54:06.743Z,0.80
2022-07-26T17:56:34.376Z,0.65
2022-07-26T17:59:02.266Z,0.50
2022-07-26T18:01:29.480Z,0.70
2022-07-26T18:03:56.928Z,0.73
2022-07-26T18:06:24.005Z,0.80
2022-07-26T18:08:51.346Z,0.60
2022-07-26T18:11:18.463Z,0.60
2022-07-26T18:13:45.657Z,0.55
2022-07-26T18:16:14.220Z,0.77
2022-07-26T18:18:41.736Z,0.80
2022-07-26T18:21:08.938Z,0.70
2022-07-26T18:23:36.198Z,0.60
2022-07-26T18:26:04.058Z,0.65
2022-07-26T18:28:31.280Z,0.60
2022-07-26T18:30:58.432Z,0.70
2022-07-26T18:33:26.546Z,0.80
2022-07-26T18:35:53.831Z,0.40
2022-07-26T18:38:21.035Z,0.70
2022-07-26T18:40:48.308Z,0.70
2022-07-26T18:43:15.694Z,0.93
2022-07-26T18:45:42.792Z,0.63
2022-07-26T18:48:10.098Z,0.70
2022-07-26T18:50:39.997Z,0.50
2022-07-26T18:53:08.005Z,0.70
2022-07-26T18:55:35.531Z,0.60
2022-07-26T18:58:06.739Z,0.65
2022-07-26T19:00:35.163Z,0.70
2022-07-26T19:03:02.451Z,0.90
2022-07-26T19:05:34.370Z,0.70
2022-07-26T19:08:03.348Z,0.80
2022-07-26T19:10:30.847Z,0.80
2022-07-26T19:12:58.257Z,0.70
2022-07-26T19:15:25.356Z,0.65
2022-07-26T19:17:52.749Z,0.70
2022-07-26T19:20:20.149Z,0.57
2022-07-26T19:22:48.484Z,0.55
2022-07-26T19:25:16.301Z,0.73
2022-07-26T19:27:44.020Z,0.77
2022-07-26T19:30:12.283Z,0.70
2022-07-26T19:32:39.815Z,0.90
2022-07-26T19:35:08.682Z,0.60
2022-07-26T19:37:36.137Z,0.70
2022-07-26T19:40:05.070Z,0.70
2022-07-26T19:42:32.901Z,0.70
2022-07-26T19:45:00.558Z,0.65
2022-07-26T19:47:29.859Z,0.70
2022-07-26T19:49:57.479Z,0.73
2022-07-26T19:52:24.645Z,0.77
2022-07-26T19:54:51.961Z,0.63
2022-07-26T19:57:19.570Z,0.77
2022-07-26T19:59:48.635Z,0.70
2022-07-26T20:02:16.895Z,0.80
2022-07-26T20:04:46.210Z,0.77
2022-07-26T20:07:19.459Z,0.70
2022-07-26T20:09:51.221Z,0.85
2022-07-26T20:12:20.374Z,0.80
2022-07-26T20:14:47.835Z,0.77
2022-07-26T20:17:15.577Z,0.80
2022-07-26T20:19:42.846Z,0.70
2022-07-26T20:22:11.322Z,0.70
2022-07-26T20:24:38.387Z,0.75
2022-07-26T20:27:07.340Z,0.85
2022-07-26T20:29:34.805Z,0.80
2022-07-26T20:32:02.598Z,0.82
2022-07-26T20:34:29.806Z,0.77
2022-07-26T20:36:56.935Z,0.73
2022-07-26T20:39:26.304Z,0.70
2022-07-26T20:41:53.967Z,0.77
2022-07-26T20:44:27.942Z,0.80
2022-07-26T20:46:55.785Z,0.95
2022-07-26T20:49:23.074Z,0.80
2022-07-26T20:51:50.216Z,0.70
2022-07-26T20:54:17.704Z,0.93
2022-07-26T20:56:44.805Z,0.80
2022-07-26T20:59:12.426Z,0.80
2022-07-26T21:01:40.220Z,0.88
2022-07-26T21:04:12.063Z,0.90
2022-07-26T21:06:39.253Z,0.90
2022-07-26T21:09:10.070Z,0.85
2022-07-26T21:11:39.187Z,1.00
2022-07-26T21:14:07.845Z,0.90
2022-07-26T21:16:35.748Z,0.88
2022-07-26T21:19:05.648Z,1.13
2022-07-26T21:21:34.241Z,0.98
2022-07-26T21:24:01.667Z,0.98
2022-07-26T21:26:28.901Z,0.70
2022-07-26T21:28:56.155Z,0.70
2022-07-26T21:31:23.399Z,0.70
2022-07-26T21:33:50.811Z,0.82
2022-07-26T21:36:17.872Z,0.98
2022-07-26T21:38:45.200Z,0.88
2022-07-26T21:41:13.317Z,0.80
2022-07-26T21:43:41.139Z,0.90
2022-07-26T21:46:12.392Z,0.95
2022-07-26T21:51:08.064Z,0.70
2022-07-26T21:53:35.365Z,1.00
2022-07-26T21:56:02.539Z,0.80
2022-07-26T21:58:34.514Z,0.90
2022-07-26T22:01:07.487Z,0.80
2022-07-26T22:03:37.042Z,0.73
2022-07-26T22:06:07.523Z,0.80
2022-07-26T22:08:35.365Z,0.70
2022-07-26T22:11:02.841Z,0.60
2022-07-26T22:13:30.185Z,0.80
2022-07-26T22:15:57.523Z,0.75
2022-07-26T22:18:24.937Z,1.00
2022-07-26T22:20:52.139Z,0.70
2022-07-26T22:23:19.934Z,0.90
2022-07-26T22:25:47.494Z,1.00
2022-07-26T22:28:17.922Z,1.05
2022-07-26T22:30:46.290Z,0.73
2022-07-26T22:33:13.508Z,0.90
2022-07-26T22:35:40.745Z,0.90
2022-07-26T22:38:10.458Z,0.90
2022-07-26T22:40:39.878Z,1.00
2022-07-26T22:43:08.044Z,1.10
2022-07-26T22:45:35.437Z,0.90
2022-07-26T22:48:04.955Z,0.88
2022-07-26T22:50:33.381Z,0.82
2022-07-26T22:53:01.141Z,0.75
2022-07-26T22:55:28.994Z,0.90
2022-07-26T22:57:56.453Z,0.90
2022-07-26T23:00:23.869Z,0.80
2022-07-26T23:02:51.106Z,1.20
2022-07-26T23:05:19.431Z,1.00
2022-07-26T23:07:48.013Z,1.00
2022-07-26T23:10:17.065Z,1.00
2022-07-26T23:12:44.941Z,0.93
2022-07-26T23:15:13.434Z,0.90
2022-07-26T23:17:40.830Z,1.02
2022-07-26T23:20:10.329Z,0.90
2022-07-26T23:22:38.839Z,0.77
2022-07-26T23:25:06.694Z,0.90
2022-07-26T23:27:34.042Z,0.90
2022-07-26T23:30:01.255Z,0.80
2022-07-26T23:32:28.760Z,0.77
2022-07-26T23:34:56.038Z,1.13
2022-07-26T23:37:23.338Z,0.80
2022-07-26T23:39:50.518Z,0.80
2022-07-26T23:42:17.779Z,0.85
2022-07-26T23:44:44.898Z,1.08
2022-07-26T23:47:12.222Z,0.90
2022-07-26T23:49:39.399Z,0.90
2022-07-26T23:52:06.650Z,0.80
2022-07-26T23:54:33.840Z,0.90
2022-07-26T23:57:00.975Z,0.70
2022-07-26T23:59:28.246Z,0.80
